Freeport, FL (32439)

2:37 PM CST on December 19, 2014 (GMT -0600)
Waterview Cove | Change Station
CLOSE
Current Station
Personal Weather Station
Location: Freeport, FL
Elevation: 18 ft
Nearby Weather Stations

Elev 18 ft 30.49 °N, 86.19 °W | Updated 10 seconds ago

Overcast
Overcast
52.7 °F
Feels Like 52.7 °F
N
0.0
Wind Variable Wind from WSW
Gusts 1.0 mph

Today
High -- | Low -- °F
--% Chance of Precip.
Yesterday
High -- | Low -- °F
Precip. -- in
6:36 AM 4:47 PM
Waning Crescent, 6% visible
Pressure 30.09 in
Visibility 10.0 miles
Clouds Few 2100 ft
Overcast 10000 ft
Dew Point 50 °F
Humidity 89%
Rainfall 0.09 in
Snow Depth Not available.
UV 1 out of 12
Pollen 1.40 out of 12
Air Quality Not available.
Flu Activity Not available.
METAR KDTS 191953Z AUTO 10008KT 10SM FEW021 OVC100 11/07 A3008 RMK AO2 SLP187 T01110072 TSNO

More Conditions Fewer Conditions

Pressure 30.09 in
Visibility 10.0 miles
Clouds Few 2100 ft
Overcast 10000 ft
Dew Point 50 °F
Humidity 89%
Rainfall 0.09 in
Snow Depth Not available.
UV 1 out of 12
Pollen 1.40 out of 12
Air Quality Not available.
Flu Activity Not available.
METAR KDTS 191953Z AUTO 10008KT 10SM FEW021 OVC100 11/07 A3008 RMK AO2 SLP187 T01110072 TSNO

More Conditions Fewer Conditions

10-Day Weather Forecast

Almanac

Astronomy

Dec. 19, 2014 Rise Set
Actual Time
Civil Twilight
Nautical Twilight
Astronomical Twilight
Moon
Length of Visible Light
Length of Day
Tomorrow will be .
, % of the Moon is Illuminated

Today's Extremes

State Highs State Lows

Community

WunderPhotos

Upload Photos

1,779,048 photos uploaded!

WunderBlogs® & News

Nearby

Air Quality

  Air Quality AQ Index Pollutant
Not available.

Snow Depth

Station Depth Elevation

Earthquake Activity

City Distance Mag. Time & Date
Minimum magnitude displayed is 2.5.

Coastal Water Temperatures

Place Temperature

Nearby Weather Stations